Time;durP1;ratioP1;P1;durP2;ratioP2;P2;SDS_P1;SDS_P2;PMS_P1;PMS_P2;Temp;Humidity;BMP_temperature;BMP_pressure;BME280_temperature;BME280_humidity;BME280_pressure;Samples;Min_cycle;Max_cycle;Signal;HPM_P1;HPM_P2
2022/01/28 00:00:47;;;;;;;13.18;2.17;;;;;;;5.87;73.58;102777.81;3583667;40;20050;-63
2022/01/28 00:03:12;;;;;;;14.48;2.42;;;;;;;5.82;73.49;102780.53;3583505;40;20052;-64
2022/01/28 00:05:38;;;;;;;16.58;3.45;;;;;;;5.81;73.39;102793.00;3581950;40;20062;-64
2022/01/28 00:08:05;;;;;;;12.18;2.83;;;;;;;5.78;73.52;102797.50;3583127;40;20076;-63
2022/01/28 00:10:33;;;;;;;19.70;3.22;;;;;;;5.70;74.20;102800.22;3583139;40;20056;-63
2022/01/28 00:13:14;;;;;;;21.23;3.95;;;;;;;5.67;74.47;102810.94;3583031;40;20079;-63
2022/01/28 00:15:55;;;;;;;16.13;3.17;;;;;;;5.61;74.12;102805.66;3584258;40;20056;-63
2022/01/28 00:39:37;;;;;;;14.45;3.55;;;;;;;5.19;75.77;102834.44;3582761;40;20040;-63
2022/01/28 00:42:03;;;;;;;18.30;3.72;;;;;;;5.17;75.32;102820.25;3580104;40;20374;-63
2022/01/28 00:44:29;;;;;;;13.60;3.75;;;;;;;5.08;75.59;102807.00;3585494;40;20052;-64
2022/01/28 00:46:55;;;;;;;20.02;3.65;;;;;;;5.08;75.61;102815.00;3582710;40;20071;-63
2022/01/28 00:49:21;;;;;;;17.20;2.65;;;;;;;5.02;75.70;102799.03;3584474;40;20072;-63
2022/01/28 00:51:47;;;;;;;10.80;3.10;;;;;;;5.06;75.54;102801.66;3581095;40;20407;-63
2022/01/28 00:54:12;;;;;;;23.02;3.47;;;;;;;5.19;75.93;102818.44;3585136;40;20086;-63
2022/01/28 00:56:38;;;;;;;13.40;3.55;;;;;;;5.21;75.41;102831.78;3583876;40;20091;-64
2022/01/28 00:59:04;;;;;;;8.13;3.05;;;;;;;4.99;75.44;102793.72;3584589;40;20076;-63
2022/01/28 01:01:30;;;;;;;17.50;5.50;;;;;;;4.98;75.13;102797.28;3581523;40;20311;-63
2022/01/28 01:04:00;;;;;;;14.13;3.50;;;;;;;5.15;75.67;102827.38;3584037;40;20079;-63
2022/01/28 01:06:27;;;;;;;19.13;3.63;;;;;;;5.04;75.45;102813.22;3584107;40;20060;-63
2022/01/28 01:08:53;;;;;;;14.90;2.80;;;;;;;5.12;75.77;102832.72;3582049;40;20366;-63
2022/01/28 01:11:21;;;;;;;18.65;2.85;;;;;;;5.12;75.88;102836.28;3580762;40;20063;-63
2022/01/28 01:13:49;;;;;;;54.70;18.65;;;;;;;5.09;75.76;102833.63;3582956;40;20177;-63
2022/01/28 01:16:21;;;;;;;130.52;51.92;;;;;;;5.12;75.31;102843.38;3583067;40;20079;-63
2022/01/28 01:19:11;;;;;;;151.43;60.15;;;;;;;5.11;75.60;102849.63;3581479;40;20062;-63
2022/01/28 01:21:40;;;;;;;265.25;107.13;;;;;;;5.13;75.58;102850.47;3581059;40;20295;-63
2022/01/28 01:24:11;;;;;;;65.88;26.08;;;;;;;5.11;75.11;102842.50;3583750;40;20056;-63
2022/01/28 01:26:39;;;;;;;85.03;40.42;;;;;;;5.11;75.93;102836.28;3582687;40;20040;-63
2022/01/28 01:29:09;;;;;;;64.10;28.45;;;;;;;5.09;75.77;102838.94;3583460;40;20063;-63
2022/01/28 01:31:39;;;;;;;35.90;12.65;;;;;;;5.09;75.84;102854.94;3582180;40;20056;-63
2022/01/28 01:34:15;;;;;;;45.75;17.20;;;;;;;5.07;75.47;102856.75;3575799;40;20384;-63
2022/01/28 01:36:41;;;;;;;28.38;8.95;;;;;;;5.05;76.05;102853.22;3583997;40;20048;-63
2022/01/28 01:39:09;;;;;;;135.48;52.17;;;;;;;5.06;76.18;102851.41;3584333;40;20063;-62
2022/01/28 01:41:45;;;;;;;55.10;23.20;;;;;;;5.07;75.87;102850.50;3583121;40;20044;-63
2022/01/28 01:44:30;;;;;;;39.22;16.58;;;;;;;5.06;76.03;102864.75;3583527;40;20121;-63
2022/01/28 01:52:27;;;;;;;43.72;21.25;;;;;;;5.08;76.27;102873.63;3582399;40;20051;-64
2022/01/28 01:54:53;;;;;;;35.65;19.42;;;;;;;5.08;76.19;102879.84;3583551;40;20048;-63
2022/01/28 01:57:18;;;;;;;29.25;15.32;;;;;;;5.00;76.62;102865.66;3582945;40;20104;-63
2022/01/28 01:59:44;;;;;;;34.42;14.95;;;;;;;5.10;75.95;102899.34;3583637;40;20063;-63
2022/01/28 02:02:11;;;;;;;29.17;15.38;;;;;;;5.11;76.07;102908.28;3583737;40;20052;-63
2022/01/28 02:04:37;;;;;;;26.30;12.32;;;;;;;5.13;76.53;102904.69;3582611;40;20052;-63
2022/01/28 02:07:04;;;;;;;18.50;7.85;;;;;;;5.06;76.03;102891.41;3584127;40;20064;-63
2022/01/28 02:09:30;;;;;;;18.67;6.22;;;;;;;5.10;75.98;102893.16;3583026;40;20383;-63
2022/01/28 02:11:56;;;;;;;25.60;12.88;;;;;;;5.16;75.80;102909.09;3583789;40;20059;-63
2022/01/28 02:14:21;;;;;;;21.17;7.32;;;;;;;5.18;75.92;102903.78;3582717;40;20615;-63
2022/01/28 02:16:47;;;;;;;20.13;7.10;;;;;;;5.15;76.04;102906.47;3582160;40;20048;-63
2022/01/28 02:19:12;;;;;;;19.50;7.57;;;;;;;5.21;75.65;102911.75;3583506;40;20048;-63
2022/01/28 02:21:47;;;;;;;20.42;6.68;;;;;;;5.22;76.22;102911.75;3582431;40;20047;-62
2022/01/28 02:24:16;;;;;;;18.65;5.07;;;;;;;5.23;75.68;102921.53;3583121;40;20048;-63
2022/01/28 02:26:42;;;;;;;15.73;4.28;;;;;;;5.23;75.77;102917.97;3581580;40;20037;-63
2022/01/28 02:29:14;;;;;;;13.13;4.22;;;;;;;5.23;75.64;102921.53;3583816;40;20052;-63
2022/01/28 02:31:42;;;;;;;12.60;3.45;;;;;;;5.23;76.01;102918.88;3584305;40;20049;-63
2022/01/28 02:34:11;;;;;;;16.17;5.93;;;;;;;5.08;75.46;102893.19;3583647;40;20060;-63
2022/01/28 02:36:37;;;;;;;17.95;4.00;;;;;;;5.24;75.63;102923.28;3584194;40;20375;-63
2022/01/28 02:39:05;;;;;;;19.02;5.80;;;;;;;5.25;76.27;102930.38;3577997;40;21015;-63
2022/01/28 02:41:36;;;;;;;14.32;4.50;;;;;;;5.20;76.15;102917.97;3584093;40;20566;-63
2022/01/28 02:44:21;;;;;;;13.27;4.50;;;;;;;5.12;75.78;102902.03;3583559;40;20067;-63
2022/01/28 02:46:57;;;;;;;18.77;4.88;;;;;;;5.21;76.10;102928.66;3583495;40;20350;-63
2022/01/28 02:49:26;;;;;;;13.48;3.70;;;;;;;5.20;76.08;102921.56;3575220;40;20051;-63
2022/01/28 02:51:53;;;;;;;15.45;5.95;;;;;;;5.21;76.09;102933.09;3583591;40;20048;-63
2022/01/28 02:54:19;;;;;;;17.02;5.90;;;;;;;5.19;76.37;102932.22;3582762;40;20056;-66
2022/01/28 02:56:50;;;;;;;13.98;4.20;;;;;;;5.12;76.27;102934.91;3585053;40;20044;-63
2022/01/28 02:59:16;;;;;;;15.95;4.00;;;;;;;5.14;76.06;102937.59;3581994;40;20311;-63
2022/01/28 03:01:42;;;;;;;18.63;3.70;;;;;;;5.14;76.35;102942.91;3579474;40;20053;-62
2022/01/28 03:04:10;;;;;;;15.20;3.38;;;;;;;4.94;76.47;102923.44;3581749;40;20060;-62
2022/01/28 03:06:36;;;;;;;11.55;3.53;;;;;;;5.07;76.09;102951.81;3581942;40;20056;-63
2022/01/28 03:09:13;;;;;;;16.33;3.70;;;;;;;5.05;76.25;102957.16;3583429;40;20072;-63
2022/01/28 03:14:17;;;;;;;19.42;4.90;;;;;;;4.99;76.50;102962.53;3581863;40;20133;-63
2022/01/28 03:17:08;;;;;;;14.02;2.53;;;;;;;4.96;76.18;102953.66;3581390;40;20365;-63
2022/01/28 03:19:45;;;;;;;10.25;2.75;;;;;;;4.99;76.78;102969.63;3583422;40;20088;-63
2022/01/28 03:22:11;;;;;;;12.45;2.45;;;;;;;5.02;76.78;102969.63;3580708;40;20052;-63
2022/01/28 03:24:37;;;;;;;14.10;2.45;;;;;;;4.80;77.06;102921.72;3581882;40;20114;-63
2022/01/28 03:27:09;;;;;;;15.35;2.60;;;;;;;5.07;77.12;102967.81;3582217;40;20084;-63
2022/01/28 03:29:35;;;;;;;17.35;2.38;;;;;;;5.05;77.23;102954.50;3583606;40;20052;-63
2022/01/28 03:32:01;;;;;;;12.18;2.30;;;;;;;5.16;77.35;102967.75;3585634;40;20560;-63
2022/01/28 03:34:26;;;;;;;18.35;2.50;;;;;;;5.19;77.16;102959.75;3583454;40;20051;-63
2022/01/28 03:36:52;;;;;;;8.57;2.25;;;;;;;5.20;76.68;102957.97;3584936;40;20124;-63
2022/01/28 03:39:18;;;;;;;14.98;2.45;;;;;;;5.27;76.75;102962.41;3585559;40;20056;-63
2022/01/28 03:41:44;;;;;;;13.68;2.47;;;;;;;5.22;76.92;102946.41;3584965;40;20060;-63
2022/01/28 03:44:10;;;;;;;14.88;3.05;;;;;;;5.04;77.10;102914.50;3584350;40;20113;-62
2022/01/28 03:46:36;;;;;;;14.23;2.40;;;;;;;5.32;76.68;102958.78;3581170;40;20052;-63
2022/01/28 03:49:04;;;;;;;15.85;2.35;;;;;;;5.39;76.95;102964.97;3580613;40;20064;-63
2022/01/28 03:51:30;;;;;;;12.95;2.58;;;;;;;5.38;76.83;102967.66;3580185;40;20054;-63
2022/01/28 03:53:56;;;;;;;11.68;3.10;;;;;;;5.34;76.21;102967.66;3582491;40;20048;-63
2022/01/28 03:56:23;;;;;;;10.98;1.95;;;;;;;5.31;76.13;102961.47;3583400;40;20052;-63
2022/01/28 03:58:48;;;;;;;11.07;2.38;;;;;;;5.26;76.59;102969.47;3583048;40;20383;-63
2022/01/28 04:01:23;;;;;;;9.80;2.33;;;;;;;5.21;76.48;102981.97;3582149;40;20063;-63
2022/01/28 04:04:15;;;;;;;8.55;1.98;;;;;;;5.16;76.81;102981.09;3582286;40;20061;-63
2022/01/28 04:12:03;;;;;;;;;;;;;;;5.00;76.91;102998.03;3584250;40;20121;-63
2022/01/28 04:19:33;;;;;;;16.80;1.80;;;;;;;4.83;77.21;102990.13;3581214;40;20080;-62
2022/01/28 04:21:59;;;;;;;11.55;2.38;;;;;;;4.78;77.56;103003.44;3584344;40;20060;-63
2022/01/28 04:24:25;;;;;;;9.30;1.90;;;;;;;4.74;78.45;102996.34;3585177;40;20056;-63
2022/01/28 04:26:51;;;;;;;14.65;3.00;;;;;;;4.76;78.50;102993.69;3583417;40;20357;-62
2022/01/28 04:29:17;;;;;;;9.50;1.83;;;;;;;4.78;79.10;102991.91;3581516;40;20049;-65
2022/01/28 04:31:46;;;;;;;13.57;2.50;;;;;;;4.77;79.33;102985.69;3583157;40;20391;-62
2022/01/28 04:34:15;;;;;;;13.18;2.38;;;;;;;4.76;79.24;102977.72;3584711;40;20096;-63
2022/01/28 04:36:52;;;;;;;11.13;2.28;;;;;;;4.81;79.63;102998.09;3581799;40;20048;-62
2022/01/28 04:39:29;;;;;;;13.35;2.50;;;;;;;4.91;79.50;103017.63;3583455;40;20059;-64
2022/01/28 04:44:52;;;;;;;11.48;2.47;;;;;;;4.98;80.12;103010.47;3584300;40;20052;-63
2022/01/28 04:47:30;;;;;;;13.82;2.80;;;;;;;5.01;80.38;103011.38;3587006;40;20060;-63
2022/01/28 05:16:49;;;;;;;17.83;3.85;;;;;;;4.71;80.40;103039.00;3577100;40;20053;-62
2022/01/28 05:27:09;;;;;;;15.13;3.72;;;;;;;4.48;80.82;103044.34;3579867;40;20048;-63
2022/01/28 05:29:35;;;;;;;13.02;3.40;;;;;;;4.51;80.88;103051.47;3583534;40;20387;-63
2022/01/28 05:32:02;;;;;;;14.60;3.58;;;;;;;4.39;80.75;103042.56;3576288;40;20056;-62
2022/01/28 05:34:28;;;;;;;18.88;4.93;;;;;;;4.42;80.42;103055.00;3578500;40;20324;-63
2022/01/28 05:36:55;;;;;;;16.35;3.80;;;;;;;4.35;80.41;103045.25;3579211;40;20048;-63
2022/01/28 05:39:21;;;;;;;15.20;4.07;;;;;;;4.30;80.62;103047.91;3582222;40;20050;-63
2022/01/28 05:41:47;;;;;;;16.25;4.05;;;;;;;4.29;80.58;103056.78;3573222;40;20130;-63
2022/01/28 05:44:13;;;;;;;12.95;3.83;;;;;;;4.22;81.21;103063.00;3583083;40;20108;-62
2022/01/28 05:46:39;;;;;;;13.25;3.55;;;;;;;4.25;81.56;103070.06;3583980;40;20083;-62
2022/01/28 05:49:05;;;;;;;16.02;4.35;;;;;;;4.25;81.25;103075.41;3585089;40;20056;-62
2022/01/28 05:51:31;;;;;;;21.65;4.30;;;;;;;4.22;81.45;103071.00;3582735;40;20048;-63
2022/01/28 05:53:58;;;;;;;11.27;3.67;;;;;;;4.24;81.71;103077.19;3579666;40;20110;-63
2022/01/28 05:56:27;;;;;;;18.27;3.95;;;;;;;4.22;81.33;103076.31;3583868;40;20044;-63
2022/01/28 05:58:54;;;;;;;18.73;4.32;;;;;;;4.00;81.22;103043.47;3581487;40;20122;-63
2022/01/28 06:01:20;;;;;;;17.33;3.70;;;;;;;4.16;80.79;103086.94;3581804;40;20119;-63
2022/01/28 06:03:47;;;;;;;17.65;3.95;;;;;;;4.13;80.70;103084.28;3581720;40;20052;-62
2022/01/28 06:06:19;;;;;;;14.75;3.92;;;;;;;4.07;80.51;103076.28;3580501;40;20067;-62
2022/01/28 06:08:47;;;;;;;20.40;4.03;;;;;;;4.05;80.38;103094.00;3584373;40;20129;-63
2022/01/28 06:11:13;;;;;;;17.17;3.88;;;;;;;3.98;80.25;103113.53;3583223;40;20507;-63
2022/01/28 06:13:38;;;;;;;16.75;3.97;;;;;;;3.93;80.08;103116.16;3582616;40;20048;-63
2022/01/28 06:16:04;;;;;;;17.27;3.78;;;;;;;3.88;80.68;103116.16;3582547;40;20056;-63
2022/01/28 06:18:30;;;;;;;18.88;4.07;;;;;;;3.84;80.31;103111.72;3583274;40;20063;-63
2022/01/28 06:20:55;;;;;;;16.42;3.90;;;;;;;3.77;80.48;103107.25;3583810;40;20051;-62
2022/01/28 06:23:21;;;;;;;20.85;3.35;;;;;;;3.77;80.52;103109.91;3584097;40;20053;-63
2022/01/28 06:25:48;;;;;;;13.82;3.50;;;;;;;3.73;79.87;103116.09;3582387;40;20048;-63
2022/01/28 06:28:14;;;;;;;13.32;3.65;;;;;;;3.65;79.83;103126.72;3583513;40;20063;-62
2022/01/28 06:30:39;;;;;;;14.25;3.75;;;;;;;3.60;79.78;103128.47;3582638;40;20063;-62
2022/01/28 06:33:05;;;;;;;10.65;3.38;;;;;;;3.56;80.17;103131.13;3583002;40;20052;-62
2022/01/28 06:35:30;;;;;;;16.52;3.90;;;;;;;3.49;80.23;103131.09;3580824;40;20469;-62
2022/01/28 06:37:56;;;;;;;15.02;3.75;;;;;;;3.33;80.00;103123.94;3583937;40;20052;-63
2022/01/28 06:40:22;;;;;;;14.45;3.60;;;;;;;3.38;79.93;103147.88;3584108;40;20052;-62
2022/01/28 06:42:48;;;;;;;13.18;4.22;;;;;;;3.34;80.39;103154.06;3584010;40;20115;-62
2022/01/28 06:45:14;;;;;;;13.32;3.65;;;;;;;3.30;80.19;103149.56;3584693;40;20068;-63
2022/01/28 06:47:39;;;;;;;15.35;4.43;;;;;;;3.25;80.55;103152.22;3585528;40;20496;-63
2022/01/28 06:50:09;;;;;;;16.70;3.75;;;;;;;3.19;80.48;103154.84;3585404;40;20044;-63
2022/01/28 06:52:37;;;;;;;18.75;4.35;;;;;;;3.18;81.39;103161.03;3581584;40;20055;-63
2022/01/28 06:55:05;;;;;;;20.52;5.85;;;;;;;3.17;81.53;103169.88;3582874;40;20056;-62
2022/01/28 06:57:31;;;;;;;16.20;4.40;;;;;;;3.09;81.34;103164.53;3584841;40;20060;-62
2022/01/28 06:59:58;;;;;;;17.85;4.55;;;;;;;2.82;81.14;103135.97;3585219;40;20055;-62
2022/01/28 07:02:24;;;;;;;18.65;4.78;;;;;;;3.07;81.83;103184.88;3584531;40;20052;-62
2022/01/28 07:04:50;;;;;;;15.50;4.35;;;;;;;3.03;81.52;103188.38;3584672;40;20084;-62
2022/01/28 07:07:16;;;;;;;16.40;4.35;;;;;;;3.03;81.89;103199.00;3574587;40;20048;-63
2022/01/28 07:09:42;;;;;;;15.15;4.53;;;;;;;2.70;81.43;103147.41;3584468;40;20060;-62
2022/01/28 07:12:08;;;;;;;17.77;4.40;;;;;;;2.95;81.37;103203.38;3584253;40;20063;-63
2022/01/28 07:14:33;;;;;;;15.48;4.20;;;;;;;2.93;81.51;103206.03;3582620;40;20119;-63
2022/01/28 07:16:59;;;;;;;19.50;4.10;;;;;;;2.89;81.38;103214.84;3582494;40;20052;-63
2022/01/28 07:19:24;;;;;;;14.27;3.95;;;;;;;2.90;82.01;103211.31;3583035;40;20056;-63
2022/01/28 07:21:51;;;;;;;14.57;4.32;;;;;;;2.88;81.39;103215.72;3583250;40;20125;-63
2022/01/28 07:24:17;;;;;;;14.88;4.28;;;;;;;2.86;81.56;103206.84;3583684;40;20055;-63
2022/01/28 07:26:42;;;;;;;16.48;4.82;;;;;;;2.85;81.31;103207.72;3579325;40;20085;-63
2022/01/28 07:29:12;;;;;;;22.50;5.13;;;;;;;2.83;81.46;103216.56;3583018;40;20102;-63
2022/01/28 07:31:38;;;;;;;13.90;4.90;;;;;;;2.82;81.13;103220.09;3583258;40;20048;-65
2022/01/28 07:34:06;;;;;;;21.63;5.13;;;;;;;2.78;82.35;103208.53;3585719;40;20092;-65
2022/01/28 07:36:35;;;;;;;12.70;4.60;;;;;;;2.75;82.00;103208.50;3582928;40;20381;-65
2022/01/28 07:39:09;;;;;;;14.75;4.80;;;;;;;2.82;81.64;103223.63;3582197;40;20084;-66
2022/01/28 07:41:35;;;;;;;18.30;4.63;;;;;;;2.80;80.98;103246.66;3582493;40;20050;-65
2022/01/28 07:44:01;;;;;;;20.63;4.43;;;;;;;2.77;81.44;103247.50;3582871;40;20092;-65
2022/01/28 07:46:26;;;;;;;15.00;4.72;;;;;;;2.75;80.60;103237.72;3583008;40;20096;-65
2022/01/28 07:48:52;;;;;;;17.83;5.10;;;;;;;2.82;81.24;103234.25;3582774;40;20056;-65
2022/01/28 07:51:18;;;;;;;11.88;4.57;;;;;;;2.84;81.31;103229.84;3580428;40;20048;-65
2022/01/28 07:53:43;;;;;;;12.75;4.03;;;;;;;2.85;80.67;103241.34;3583208;40;20056;-65
2022/01/28 07:56:11;;;;;;;16.77;4.30;;;;;;;2.83;81.10;103243.13;3582641;40;20283;-65
2022/01/28 07:58:37;;;;;;;12.50;4.20;;;;;;;2.81;81.45;103244.88;3585028;40;20091;-66
2022/01/28 08:01:02;;;;;;;14.43;5.22;;;;;;;2.82;80.44;103242.22;3580206;40;20050;-65
2022/01/28 08:03:28;;;;;;;12.30;4.63;;;;;;;2.86;80.83;103244.03;3582634;40;20221;-65
2022/01/28 08:05:54;;;;;;;20.15;6.22;;;;;;;2.89;81.25;103253.81;3582691;40;20286;-64
2022/01/28 08:08:21;;;;;;;21.10;6.03;;;;;;;2.91;81.54;103255.59;3583581;40;20264;-65
2022/01/28 08:10:47;;;;;;;14.00;5.30;;;;;;;2.96;81.72;103260.97;3582768;40;20056;-65
2022/01/28 08:13:13;;;;;;;13.52;5.65;;;;;;;2.97;81.19;103260.06;3583388;40;20056;-64
2022/01/28 08:15:40;;;;;;;20.05;6.22;;;;;;;2.95;80.73;103260.06;3582995;40;20318;-65
2022/01/28 08:18:07;;;;;;;17.00;6.10;;;;;;;3.01;81.01;103269.84;3569018;40;20056;-65
2022/01/28 08:20:33;;;;;;;20.80;6.57;;;;;;;3.03;80.31;103279.59;3581290;40;20377;-65
2022/01/28 08:23:01;;;;;;;16.45;5.70;;;;;;;3.07;80.83;103283.19;3583210;40;20056;-65
2022/01/28 08:25:31;;;;;;;19.75;5.95;;;;;;;3.16;81.07;103285.03;3582748;40;20052;-65
2022/01/28 08:27:58;;;;;;;18.20;5.25;;;;;;;3.23;81.19;103292.19;3580650;40;20092;-65
2022/01/28 08:30:27;;;;;;;18.30;6.10;;;;;;;3.25;80.79;103291.31;3582544;40;20534;-65
2022/01/28 08:32:53;;;;;;;18.33;5.15;;;;;;;3.26;80.51;103279.78;3583171;40;20084;-65
2022/01/28 08:35:28;;;;;;;16.52;6.07;;;;;;;3.21;80.78;103254.09;3581989;40;20367;-65
2022/01/28 08:37:53;;;;;;;15.57;5.13;;;;;;;3.48;80.40;103291.50;3582850;40;20056;-65
2022/01/28 08:40:19;;;;;;;15.68;5.80;;;;;;;3.59;81.27;103296.03;3580234;40;20473;-64
2022/01/28 08:42:45;;;;;;;15.38;5.43;;;;;;;3.73;80.93;103311.16;3582748;40;20126;-64
2022/01/28 08:45:11;;;;;;;13.63;5.57;;;;;;;3.86;81.67;103306.81;3582095;40;20064;-64
2022/01/28 08:47:36;;;;;;;12.70;5.15;;;;;;;4.02;81.42;103307.78;3585288;40;20067;-65
2022/01/28 08:50:03;;;;;;;15.57;5.35;;;;;;;4.08;81.24;103288.31;3583987;40;20275;-65
2022/01/28 08:52:29;;;;;;;16.38;5.38;;;;;;;4.29;80.76;103309.72;3582552;40;20051;-65
2022/01/28 08:54:55;;;;;;;18.38;5.22;;;;;;;4.34;80.19;103299.94;3582438;40;20111;-64
2022/01/28 08:57:20;;;;;;;18.48;5.05;;;;;;;4.54;80.45;103309.81;3582471;40;20631;-65
2022/01/28 08:59:46;;;;;;;14.15;5.47;;;;;;;4.65;80.28;103300.94;3584062;40;20387;-65
2022/01/28 09:02:12;;;;;;;16.08;5.15;;;;;;;4.74;79.98;103304.53;3583955;40;20149;-64
2022/01/28 09:04:37;;;;;;;14.90;5.40;;;;;;;4.87;79.70;103293.88;3583401;40;20129;-66
2022/01/28 09:07:03;;;;;;;13.75;4.68;;;;;;;4.71;79.58;103252.13;3584372;40;20242;-66
2022/01/28 09:09:29;;;;;;;14.05;5.05;;;;;;;5.08;79.63;103301.03;3581000;40;20044;-65
2022/01/28 09:14:25;;;;;;;14.98;4.95;;;;;;;5.37;78.72;103288.59;3583390;40;20555;-65
2022/01/28 09:16:55;;;;;;;16.20;5.40;;;;;;;5.56;78.41;103299.25;3583184;40;20372;-65
2022/01/28 09:19:21;;;;;;;18.90;5.22;;;;;;;5.73;78.33;103295.66;3582343;40;20090;-65
2022/01/28 09:21:46;;;;;;;16.50;5.30;;;;;;;5.93;77.08;103303.63;3584544;40;20133;-65
2022/01/28 09:24:12;;;;;;;17.10;5.13;;;;;;;6.10;77.19;103296.50;3581874;40;20071;-65
2022/01/28 09:26:38;;;;;;;14.65;4.72;;;;;;;6.27;76.63;103310.66;3579463;40;20056;-65
2022/01/28 09:29:04;;;;;;;16.05;4.95;;;;;;;6.44;76.67;103313.28;3577702;40;20052;-65
2022/01/28 09:31:30;;;;;;;16.67;4.90;;;;;;;6.36;75.38;103271.44;3576863;40;20135;-66
2022/01/28 09:33:56;;;;;;;15.75;5.38;;;;;;;6.69;75.37;103319.38;3579906;40;20261;-65
2022/01/28 09:36:22;;;;;;;17.02;5.05;;;;;;;6.79;74.91;103319.31;3579934;40;20056;-65
2022/01/28 09:38:48;;;;;;;17.02;5.13;;;;;;;6.97;74.83;103314.72;3581083;40;20048;-65
2022/01/28 09:41:16;;;;;;;19.63;4.63;;;;;;;7.12;74.19;103311.06;3580120;40;20068;-66
2022/01/28 09:43:45;;;;;;;16.83;4.90;;;;;;;7.26;74.09;103312.75;3578856;40;20079;-66
2022/01/28 09:46:13;;;;;;;18.00;4.68;;;;;;;7.44;73.79;103310.81;3579316;40;20086;-65
2022/01/28 09:48:39;;;;;;;18.13;4.72;;;;;;;7.62;72.83;103308.88;3579298;40;20056;-65
2022/01/28 09:51:06;;;;;;;13.80;4.10;;;;;;;7.75;73.08;103318.56;3579524;40;20052;-67
2022/01/28 09:53:32;;;;;;;18.17;4.97;;;;;;;7.94;72.76;103321.94;3580229;40;20080;-65
2022/01/28 09:55:58;;;;;;;17.05;4.70;;;;;;;8.11;72.17;103319.94;3583975;40;20353;-66
2022/01/28 09:58:25;;;;;;;14.95;4.00;;;;;;;8.34;70.60;103332.16;3583659;40;20328;-66
2022/01/28 10:00:51;;;;;;;22.50;5.60;;;;;;;8.52;70.63;103334.66;3580921;40;20057;-66
2022/01/28 10:03:19;;;;;;;17.90;4.57;;;;;;;8.75;70.34;103339.75;3583564;40;20056;-66
2022/01/28 10:05:51;;;;;;;17.10;4.65;;;;;;;8.97;69.55;103339.41;3585568;40;20057;-66
2022/01/28 10:08:25;;;;;;;12.32;4.30;;;;;;;9.13;68.72;103313.22;3586447;40;20079;-66
2022/01/28 10:11:15;;;;;;;15.68;4.35;;;;;;;9.39;67.62;103320.88;3583397;40;20052;-66
2022/01/28 10:16:24;;;;;;;13.82;3.35;;;;;;;9.77;66.79;103328.25;3583312;40;20060;-66
2022/01/28 10:19:07;;;;;;;17.65;3.85;;;;;;;9.96;66.27;103318.94;3573801;40;20052;-66
2022/01/28 10:21:38;;;;;;;17.63;3.87;;;;;;;10.05;64.71;103319.66;3584246;40;20056;-66
2022/01/28 10:24:22;;;;;;;16.30;4.13;;;;;;;10.25;64.36;103336.28;3574737;40;20280;-66
2022/01/28 10:27:05;;;;;;;14.00;4.70;;;;;;;10.38;63.82;103327.09;3583093;40;20060;-66
2022/01/28 10:29:34;;;;;;;12.65;3.88;;;;;;;10.47;64.01;103331.38;3582056;40;20410;-66
2022/01/28 10:32:15;;;;;;;17.02;5.32;;;;;;;10.49;63.35;103336.72;3583067;40;20052;-66
2022/01/28 10:34:48;;;;;;;15.02;5.10;;;;;;;10.62;62.80;103330.16;3582797;40;20052;-66
2022/01/28 10:37:32;;;;;;;23.92;5.68;;;;;;;10.81;63.66;103333.31;3582777;40;20129;-66
2022/01/28 10:40:03;;;;;;;19.10;5.93;;;;;;;10.93;62.43;103344.69;3584132;40;20040;-66
2022/01/28 10:42:29;;;;;;;13.80;4.20;;;;;;;11.09;61.49;103336.25;3584024;40;20048;-66
2022/01/28 10:45:14;;;;;;;17.83;4.25;;;;;;;11.15;61.67;103347.75;3582637;40;20130;-66
2022/01/28 10:47:46;;;;;;;14.77;4.10;;;;;;;11.25;61.18;103337.66;3583885;40;20052;-66
2022/01/28 10:50:30;;;;;;;16.65;4.07;;;;;;;11.32;61.04;103330.31;3583568;40;20327;-66
2022/01/28 10:53:02;;;;;;;17.42;4.40;;;;;;;11.43;61.31;103327.38;3583759;40;20048;-66
2022/01/28 10:55:32;;;;;;;16.05;3.90;;;;;;;11.46;61.06;103332.69;3584718;40;20272;-66
2022/01/28 10:58:09;;;;;;;17.38;3.65;;;;;;;11.46;60.17;103329.97;3583517;40;20157;-65
2022/01/28 11:00:50;;;;;;;15.65;3.60;;;;;;;11.61;60.02;103329.59;3582281;40;20344;-66
2022/01/28 11:03:20;;;;;;;18.30;4.00;;;;;;;11.74;58.94;103330.16;3583201;40;20465;-65
2022/01/28 11:05:46;;;;;;;15.30;3.47;;;;;;;11.56;58.76;103273.13;3583702;40;20056;-65
2022/01/28 11:08:15;;;;;;;14.32;4.13;;;;;;;11.85;58.12;103318.19;3582860;40;20100;-65
2022/01/28 11:10:43;;;;;;;17.42;3.90;;;;;;;11.69;58.51;103316.78;3582631;40;20058;-67
2022/01/28 11:13:10;;;;;;;15.02;3.45;;;;;;;11.73;58.03;103323.84;3583509;40;20048;-67
2022/01/28 11:15:36;;;;;;;16.15;3.15;;;;;;;11.82;58.31;103312.84;3583167;40;20302;-67
2022/01/28 11:18:05;;;;;;;13.55;3.42;;;;;;;11.94;58.15;103311.66;3582729;40;20068;-65
2022/01/28 11:20:46;;;;;;;19.45;3.78;;;;;;;12.17;57.58;103304.72;3583655;40;20056;-65
2022/01/28 11:23:33;;;;;;;13.85;3.45;;;;;;;12.20;55.85;103296.56;3583782;40;20406;-65
2022/01/28 11:26:20;;;;;;;41.00;5.35;;;;;;;12.36;55.80;103291.59;3581210;40;20096;-65
2022/01/28 11:28:56;;;;;;;23.55;3.22;;;;;;;12.58;54.95;103291.81;3582354;40;20055;-66
2022/01/28 11:31:46;;;;;;;13.50;2.80;;;;;;;12.71;54.84;103275.19;3583360;40;20060;-65
2022/01/28 11:34:30;;;;;;;13.85;3.10;;;;;;;12.70;52.81;103281.53;3583118;40;20121;-65
2022/01/28 11:36:59;;;;;;;12.60;3.20;;;;;;;12.60;54.00;103282.75;3582979;40;20060;-66
2022/01/28 11:39:39;;;;;;;16.95;3.40;;;;;;;12.59;54.41;103272.91;3583241;40;20052;-66
2022/01/28 11:42:24;;;;;;;13.43;3.05;;;;;;;12.76;52.53;103275.94;3580679;40;20072;-65
2022/01/28 11:44:57;;;;;;;12.00;2.65;;;;;;;12.77;52.86;103277.69;3581813;40;20184;-65
2022/01/28 11:47:39;;;;;;;17.60;3.42;;;;;;;12.92;51.87;103256.56;3579813;40;20088;-65
2022/01/28 11:50:08;;;;;;;13.65;2.83;;;;;;;13.16;51.54;103274.66;3579852;40;20417;-65
2022/01/28 11:52:53;;;;;;;15.02;3.28;;;;;;;13.28;52.01;103262.56;3577542;40;20122;-65
2022/01/28 11:55:23;;;;;;;13.73;3.10;;;;;;;13.46;52.55;103255.66;3579953;40;20060;-69
2022/01/28 11:58:13;;;;;;;11.10;2.95;;;;;;;13.38;50.64;103268.53;3582287;40;20288;-68
2022/01/28 12:00:47;;;;;;;13.85;2.42;;;;;;;12.83;51.64;103264.94;3579565;40;20389;-66
2022/01/28 12:03:29;;;;;;;13.82;3.22;;;;;;;12.26;53.64;103274.78;3580020;40;20055;-66
2022/01/28 12:06:07;;;;;;;10.13;2.80;;;;;;;11.99;54.37;103271.09;3583825;40;20044;-66
2022/01/28 12:08:33;;;;;;;11.57;2.65;;;;;;;11.61;54.67;103275.72;3581679;40;20052;-66
2022/01/28 12:11:02;;;;;;;11.88;2.58;;;;;;;11.25;55.24;103267.66;3582090;40;20454;-65
2022/01/28 12:14:00;;;;;;;9.48;2.40;;;;;;;11.06;54.92;103269.03;3581059;40;20068;-66
2022/01/28 12:16:41;;;;;;;8.98;2.35;;;;;;;10.75;55.53;103272.50;3579032;40;20360;-65
2022/01/28 12:19:16;;;;;;;13.38;2.55;;;;;;;11.06;54.63;103260.97;3577754;40;20067;-65
2022/01/28 12:22:08;;;;;;;8.90;2.50;;;;;;;11.36;54.67;103257.50;3578784;40;20056;-65
2022/01/28 12:24:37;;;;;;;10.77;2.78;;;;;;;11.81;53.93;103254.47;3580849;40;20117;-66
2022/01/28 12:27:13;;;;;;;7.50;2.42;;;;;;;11.88;53.13;103230.97;3581445;40;20059;-66
2022/01/28 12:29:46;;;;;;;10.52;2.92;;;;;;;12.26;53.41;103229.81;3579624;40;20061;-65
2022/01/28 12:32:13;;;;;;;11.43;2.50;;;;;;;12.72;52.86;103236.50;3578321;40;20071;-66
2022/01/28 12:34:45;;;;;;;12.20;3.05;;;;;;;13.00;50.79;103230.16;3583226;40;20118;-65
2022/01/28 12:37:10;;;;;;;11.55;3.50;;;;;;;13.15;51.42;103234.19;3584676;40;20398;-66
2022/01/28 12:39:42;;;;;;;11.00;3.53;;;;;;;13.47;49.62;103233.97;3585525;40;20063;-66
2022/01/28 12:42:22;;;;;;;11.27;3.17;;;;;;;13.64;49.45;103222.56;3586422;40;20746;-65
2022/01/28 12:44:54;;;;;;;11.57;3.75;;;;;;;13.81;48.54;103219.25;3584764;40;20272;-65
2022/01/28 12:47:21;;;;;;;9.30;3.50;;;;;;;13.53;48.06;103192.34;3581411;40;20052;-67
2022/01/28 12:49:55;;;;;;;11.20;4.13;;;;;;;13.02;49.93;103212.09;3584372;40;20102;-65
2022/01/28 12:52:21;;;;;;;12.40;4.50;;;;;;;12.87;50.38;103215.31;3582883;40;20057;-66
2022/01/28 12:54:47;;;;;;;12.70;4.20;;;;;;;12.43;51.93;103209.53;3564439;40;20117;-65
2022/01/28 12:57:17;;;;;;;12.63;4.70;;;;;;;11.99;52.68;103218.06;3583562;40;20059;-66